createdAt,value
2019-04-25T00:02:05.445Z,11.60
2019-04-25T00:04:38.672Z,11.60
2019-04-25T00:07:12.017Z,11.60
2019-04-25T00:09:51.718Z,11.60
2019-04-25T00:12:25.273Z,11.60
2019-04-25T00:14:57.818Z,11.50
2019-04-25T00:17:31.819Z,11.50
2019-04-25T00:20:07.110Z,11.40
2019-04-25T00:22:45.898Z,11.30
2019-04-25T00:25:45.393Z,11.20
2019-04-25T00:28:16.346Z,11.10
2019-04-25T00:30:48.464Z,10.90
2019-04-25T00:33:21.566Z,10.70
2019-04-25T00:35:53.698Z,10.70
2019-04-25T00:38:26.156Z,10.60
2019-04-25T00:40:58.318Z,10.60
2019-04-25T00:43:31.528Z,10.50
2019-04-25T00:46:03.676Z,10.30
2019-04-25T00:48:36.428Z,10.10
2019-04-25T00:51:08.859Z,10.10
2019-04-25T00:53:42.665Z,10.10
2019-04-25T00:56:14.603Z,10.00
2019-04-25T00:59:05.492Z,10.00
2019-04-25T01:01:59.363Z,9.90
2019-04-25T01:04:33.880Z,9.90
2019-04-25T01:07:05.836Z,9.70
2019-04-25T01:09:38.190Z,9.70
2019-04-25T01:12:11.650Z,9.70
2019-04-25T01:14:45.403Z,9.70
2019-04-25T01:17:17.660Z,9.70
2019-04-25T01:19:49.578Z,9.70
2019-04-25T01:22:23.160Z,9.70
2019-04-25T01:24:55.999Z,9.60
2019-04-25T01:27:28.144Z,9.60
2019-04-25T01:30:00.061Z,9.50
2019-04-25T01:32:36.912Z,9.40
2019-04-25T01:35:28.848Z,9.30
2019-04-25T01:38:19.730Z,9.20
2019-04-25T01:41:09.121Z,9.00
2019-04-25T01:43:53.128Z,8.80
2019-04-25T01:46:24.469Z,8.60
2019-04-25T01:48:56.854Z,8.40
2019-04-25T01:51:29.208Z,8.30
2019-04-25T01:54:01.598Z,8.20
2019-04-25T01:56:33.830Z,8.30
2019-04-25T01:59:06.085Z,8.50
2019-04-25T02:01:40.069Z,8.60
2019-04-25T02:04:13.215Z,8.70
2019-04-25T02:06:45.223Z,8.70
2019-04-25T02:09:17.813Z,8.60
2019-04-25T02:12:15.499Z,8.60
2019-04-25T02:14:48.386Z,8.50
2019-04-25T02:17:20.477Z,8.30
2019-04-25T02:19:54.546Z,8.20
2019-04-25T02:22:26.550Z,8.10
2019-04-25T02:24:59.029Z,8.10
2019-04-25T02:27:30.946Z,8.20
2019-04-25T02:30:04.337Z,8.10
2019-04-25T02:32:37.102Z,8.10
2019-04-25T02:35:10.351Z,7.90
2019-04-25T02:37:42.355Z,7.70
2019-04-25T02:40:17.867Z,7.60
2019-04-25T02:42:49.804Z,7.50
2019-04-25T02:45:40.725Z,7.40
2019-04-25T02:48:30.175Z,7.50
2019-04-25T02:51:08.469Z,7.60
2019-04-25T02:53:44.709Z,7.60
2019-04-25T02:56:29.887Z,7.50
2019-04-25T02:58:50.755Z,7.50
2019-04-25T03:01:26.129Z,7.60
2019-04-25T03:03:57.951Z,7.60
2019-04-25T03:06:31.944Z,7.60
2019-04-25T03:09:06.454Z,7.60
2019-04-25T03:11:38.009Z,7.70
2019-04-25T03:14:10.542Z,7.80
2019-04-25T03:16:44.854Z,7.80
2019-04-25T03:19:34.420Z,7.90
2019-04-25T03:22:11.040Z,8.00
2019-04-25T03:24:41.656Z,7.90
2019-04-25T03:27:14.332Z,7.90
2019-04-25T03:29:46.256Z,7.80
2019-04-25T03:32:19.815Z,7.60
2019-04-25T03:34:53.130Z,7.50
2019-04-25T03:37:26.618Z,7.40
2019-04-25T03:39:58.658Z,7.40
2019-04-25T03:42:30.746Z,7.30
2019-04-25T03:45:04.696Z,7.20
2019-04-25T03:47:37.024Z,7.00
2019-04-25T03:50:09.868Z,6.90
2019-04-25T03:52:43.599Z,6.90
2019-04-25T03:55:15.890Z,6.80
2019-04-25T03:57:47.848Z,6.70
2019-04-25T04:00:19.869Z,6.60
2019-04-25T04:02:51.818Z,6.60
2019-04-25T04:05:23.844Z,6.60
2019-04-25T04:07:55.793Z,6.60
2019-04-25T04:10:28.352Z,6.60
2019-04-25T04:13:00.762Z,6.60
2019-04-25T04:15:33.525Z,6.50
2019-04-25T04:18:20.099Z,6.50
2019-04-25T04:21:16.210Z,6.50
2019-04-25T04:24:06.471Z,6.50
2019-04-25T04:26:38.553Z,6.40
2019-04-25T04:29:10.526Z,6.50
2019-04-25T04:31:43.135Z,6.60
2019-04-25T04:34:15.630Z,6.70
2019-04-25T04:36:47.574Z,6.90
2019-04-25T04:39:19.531Z,7.00
2019-04-25T04:41:51.506Z,7.00
2019-04-25T04:44:24.176Z,7.00
2019-04-25T04:46:56.477Z,6.90
2019-04-25T04:49:31.628Z,6.90
2019-04-25T04:52:04.525Z,6.80
2019-04-25T04:54:37.508Z,6.80
2019-04-25T04:57:26.093Z,6.80
2019-04-25T04:59:43.968Z,6.80
2019-04-25T05:02:40.982Z,6.90
2019-04-25T05:05:34.301Z,7.00
2019-04-25T05:08:12.981Z,7.20
2019-04-25T05:10:45.994Z,7.30
2019-04-25T05:13:18.337Z,7.30
2019-04-25T05:15:50.278Z,7.50
2019-04-25T05:18:34.595Z,7.60
2019-04-25T05:20:56.163Z,7.70
2019-04-25T05:23:28.925Z,7.80
2019-04-25T05:26:00.876Z,7.80
2019-04-25T05:28:33.481Z,8.00
2019-04-25T05:31:19.591Z,8.10
2019-04-25T05:33:53.506Z,8.30
2019-04-25T05:36:29.302Z,8.40
2019-04-25T05:39:01.263Z,8.60
2019-04-25T05:41:39.682Z,8.70
2019-04-25T05:44:11.623Z,8.80
2019-04-25T05:46:45.318Z,8.80
2019-04-25T05:49:17.816Z,9.00
2019-04-25T05:51:50.642Z,9.10
2019-04-25T05:54:24.492Z,9.30
2019-04-25T05:56:56.739Z,9.50
2019-04-25T05:59:28.774Z,9.60
2019-04-25T06:02:01.165Z,9.80
2019-04-25T06:04:33.593Z,10.00
2019-04-25T06:07:05.805Z,10.20
2019-04-25T06:09:56.574Z,10.40
2019-04-25T06:12:49.418Z,10.50
2019-04-25T06:15:24.892Z,10.80
2019-04-25T06:18:21.552Z,10.90
2019-04-25T06:20:55.561Z,11.10
2019-04-25T06:23:54.432Z,11.30
2019-04-25T06:26:35.074Z,11.40
2019-04-25T06:29:01.177Z,11.60
2019-04-25T06:31:34.192Z,11.70
2019-04-25T06:34:06.787Z,11.90
2019-04-25T06:36:38.872Z,12.00
2019-04-25T06:39:11.840Z,12.20
2019-04-25T06:41:44.346Z,12.40
2019-04-25T06:44:34.431Z,12.50
2019-04-25T06:47:26.712Z,12.70
2019-04-25T06:49:59.755Z,12.90
2019-04-25T06:52:33.793Z,13.00
2019-04-25T06:55:07.260Z,13.10
2019-04-25T06:57:39.669Z,13.30
2019-04-25T07:00:14.172Z,13.50
2019-04-25T07:02:46.259Z,13.60
2019-04-25T07:05:31.009Z,13.70
2019-04-25T07:07:54.802Z,13.90
2019-04-25T07:10:27.506Z,14.10
2019-04-25T07:13:00.127Z,14.30
2019-04-25T07:15:34.106Z,14.50
2019-04-25T07:18:06.989Z,14.70
2019-04-25T07:20:39.264Z,14.80
2019-04-25T07:23:11.474Z,14.90
2019-04-25T07:25:50.035Z,15.10
2019-04-25T07:28:50.387Z,15.30
2019-04-25T07:31:41.261Z,15.40
2019-04-25T07:34:17.555Z,15.60
2019-04-25T07:36:50.113Z,15.80
2019-04-25T07:39:23.608Z,16.00
2019-04-25T07:41:56.680Z,16.20
2019-04-25T07:44:44.267Z,16.40
2019-04-25T07:47:04.040Z,16.60
2019-04-25T07:49:36.105Z,16.70
2019-04-25T07:52:08.248Z,16.80
2019-04-25T07:54:40.992Z,17.00
2019-04-25T07:57:13.655Z,17.10
2019-04-25T07:59:45.807Z,17.20
2019-04-25T08:02:18.126Z,17.30
2019-04-25T08:04:50.627Z,17.50
2019-04-25T08:07:24.057Z,17.60
2019-04-25T08:09:56.883Z,17.80
2019-04-25T08:12:29.001Z,18.00
2019-04-25T08:15:09.354Z,18.20
2019-04-25T08:18:00.494Z,18.30
2019-04-25T08:20:34.449Z,18.40
2019-04-25T08:23:08.346Z,18.40
2019-04-25T08:25:40.865Z,18.50
2019-04-25T08:28:13.772Z,18.60
2019-04-25T08:30:45.950Z,18.80
2019-04-25T08:33:18.155Z,18.90
2019-04-25T08:36:04.318Z,19.00
2019-04-25T08:38:24.297Z,19.20
2019-04-25T08:40:57.067Z,19.30
2019-04-25T08:43:29.994Z,19.40
2019-04-25T08:46:04.226Z,19.60
2019-04-25T08:48:55.203Z,19.70
2019-04-25T08:51:31.430Z,19.90
2019-04-25T08:54:13.823Z,20.10
2019-04-25T08:56:46.946Z,20.30
2019-04-25T08:59:42.386Z,20.30
2019-04-25T09:02:24.244Z,20.50
2019-04-25T09:05:14.457Z,20.60
2019-04-25T09:07:47.507Z,20.70
2019-04-25T09:10:20.066Z,20.70
2019-04-25T09:12:53.681Z,20.80
2019-04-25T09:15:26.067Z,20.90
2019-04-25T09:17:59.566Z,21.10
2019-04-25T09:20:31.678Z,21.30
2019-04-25T09:23:04.911Z,21.30
2019-04-25T09:25:37.387Z,21.30
2019-04-25T09:28:09.800Z,21.40
2019-04-25T09:30:42.989Z,21.50
2019-04-25T09:33:19.042Z,21.50
2019-04-25T09:35:51.153Z,21.60
2019-04-25T09:38:24.400Z,21.60
2019-04-25T09:40:57.635Z,21.80
2019-04-25T09:43:30.240Z,21.90
2019-04-25T09:46:10.067Z,21.90
2019-04-25T09:48:54.699Z,21.90
2019-04-25T09:51:30.163Z,21.90
2019-04-25T09:54:15.475Z,22.00
2019-04-25T09:56:49.576Z,22.20
2019-04-25T09:59:28.076Z,22.20
2019-04-25T10:01:58.647Z,22.20
2019-04-25T10:04:31.065Z,22.30
2019-04-25T10:07:03.957Z,22.40
2019-04-25T10:09:37.504Z,22.40
2019-04-25T10:12:09.724Z,22.60
2019-04-25T10:15:04.463Z,22.70
2019-04-25T10:17:37.738Z,22.70
2019-04-25T10:20:10.563Z,22.90
2019-04-25T10:22:44.558Z,22.90
2019-04-25T10:25:19.324Z,22.90
2019-04-25T10:27:52.004Z,22.90
2019-04-25T10:30:26.018Z,23.00
2019-04-25T10:32:58.728Z,23.20
2019-04-25T10:35:34.220Z,23.30
2019-04-25T10:38:05.653Z,23.50
2019-04-25T10:40:38.496Z,23.70
2019-04-25T10:43:11.905Z,23.70
2019-04-25T10:45:45.980Z,23.70
2019-04-25T10:48:19.387Z,23.70
2019-04-25T10:50:55.692Z,23.70
2019-04-25T10:53:28.660Z,23.70
2019-04-25T10:56:01.426Z,23.90
2019-04-25T10:58:35.297Z,24.00
2019-04-25T11:01:07.931Z,24.00
2019-04-25T11:04:10.671Z,24.10
2019-04-25T11:06:45.331Z,24.00
2019-04-25T11:09:28.483Z,24.10
2019-04-25T11:12:01.843Z,24.20
2019-04-25T11:14:34.390Z,24.30
2019-04-25T11:17:06.766Z,24.40
2019-04-25T11:19:38.803Z,24.50
2019-04-25T11:22:11.182Z,24.50
2019-04-25T11:24:43.795Z,24.60
2019-04-25T11:27:16.255Z,24.90
2019-04-25T11:29:48.596Z,25.10
2019-04-25T11:32:23.802Z,25.10
2019-04-25T11:34:56.099Z,25.00
2019-04-25T11:37:30.531Z,25.10
2019-04-25T11:40:15.071Z,25.10
2019-04-25T11:42:48.226Z,25.30
2019-04-25T11:45:20.718Z,25.40
2019-04-25T11:47:54.395Z,25.50
2019-04-25T11:50:26.934Z,25.60
2019-04-25T11:52:59.010Z,25.80
2019-04-25T11:55:32.271Z,25.80
2019-04-25T11:58:05.222Z,25.80
2019-04-25T12:00:37.989Z,25.90
2019-04-25T12:03:10.390Z,25.80
2019-04-25T12:05:45.454Z,25.70
2019-04-25T12:08:16.857Z,25.50
2019-04-25T12:10:49.456Z,25.40
2019-04-25T12:13:24.241Z,25.50
2019-04-25T12:15:56.856Z,25.60
2019-04-25T12:18:28.938Z,25.70
2019-04-25T12:21:01.607Z,25.60
2019-04-25T12:23:33.995Z,25.40
2019-04-25T12:26:06.646Z,25.40
2019-04-25T12:28:38.931Z,25.30
2019-04-25T12:31:11.045Z,25.30
2019-04-25T12:33:46.342Z,25.40
2019-04-25T12:36:17.707Z,25.40
2019-04-25T12:38:49.839Z,25.50
2019-04-25T12:41:22.372Z,25.60
2019-04-25T12:44:11.863Z,25.50
2019-04-25T12:46:46.278Z,25.40
2019-04-25T12:49:18.697Z,25.30
2019-04-25T12:51:50.911Z,25.30
2019-04-25T12:54:23.856Z,25.40
2019-04-25T12:56:57.209Z,25.50
2019-04-25T12:59:30.046Z,25.70
2019-04-25T13:02:04.465Z,25.80
2019-04-25T13:04:36.291Z,25.80
2019-04-25T13:07:09.110Z,25.80
2019-04-25T13:09:41.202Z,25.70
2019-04-25T13:12:14.955Z,25.70
2019-04-25T13:14:47.322Z,25.60
2019-04-25T13:17:19.530Z,25.70
2019-04-25T13:19:51.618Z,25.90
2019-04-25T13:22:23.912Z,26.20
2019-04-25T13:24:56.349Z,26.30
2019-04-25T13:27:47.587Z,26.30
2019-04-25T13:30:59.614Z,26.40
2019-04-25T13:33:46.019Z,26.20
2019-04-25T13:36:19.461Z,25.90
2019-04-25T13:38:51.717Z,25.80
2019-04-25T13:41:24.976Z,25.80
2019-04-25T13:43:57.745Z,25.60
2019-04-25T13:46:30.025Z,25.40
2019-04-25T13:49:02.148Z,25.20
2019-04-25T13:51:34.983Z,25.00
2019-04-25T13:54:07.311Z,24.90
2019-04-25T13:56:40.693Z,24.70
2019-04-25T13:59:13.053Z,24.70
2019-04-25T14:01:45.154Z,24.70
2019-04-25T14:04:17.928Z,24.60
2019-04-25T14:06:49.993Z,24.60
2019-04-25T14:09:24.544Z,24.70
2019-04-25T14:11:57.230Z,24.70
2019-04-25T14:14:30.226Z,24.80
2019-04-25T14:17:24.763Z,24.90
2019-04-25T14:20:32.671Z,24.80
2019-04-25T14:23:07.412Z,24.70
2019-04-25T14:25:40.042Z,24.70
2019-04-25T14:28:14.072Z,24.60
2019-04-25T14:30:46.577Z,24.50
2019-04-25T14:33:18.991Z,24.60
2019-04-25T14:35:54.629Z,24.50
2019-04-25T14:38:26.598Z,24.50
2019-04-25T14:41:00.252Z,24.50
2019-04-25T14:43:32.476Z,24.50
2019-04-25T14:46:05.479Z,24.60
2019-04-25T14:48:37.972Z,24.60
2019-04-25T14:51:10.840Z,24.60
2019-04-25T14:53:43.523Z,24.60
2019-04-25T14:56:49.648Z,24.60
2019-04-25T14:59:23.601Z,24.70
2019-04-25T15:01:56.860Z,24.70
2019-04-25T15:04:30.118Z,24.70
2019-04-25T15:07:03.042Z,24.80
2019-04-25T15:09:35.400Z,24.80
2019-04-25T15:12:07.619Z,24.70
2019-04-25T15:14:40.032Z,24.60
2019-04-25T15:17:13.250Z,24.50
2019-04-25T15:19:46.768Z,24.50
2019-04-25T15:22:19.327Z,24.50
2019-04-25T15:24:51.395Z,24.50
2019-04-25T15:27:24.139Z,24.50
2019-04-25T15:29:58.057Z,24.50
2019-04-25T15:32:33.422Z,24.50
2019-04-25T15:35:07.621Z,24.50
2019-04-25T15:37:48.933Z,24.30
2019-04-25T15:40:27.666Z,24.20
2019-04-25T15:43:34.442Z,24.20
2019-04-25T15:46:32.311Z,24.20
2019-04-25T15:49:04.630Z,24.10
2019-04-25T15:51:37.641Z,24.20
2019-04-25T15:54:11.439Z,24.10
2019-04-25T15:56:45.034Z,24.20
2019-04-25T15:59:17.536Z,24.20
2019-04-25T16:01:50.038Z,24.20
2019-04-25T16:04:22.151Z,24.30
2019-04-25T16:06:55.424Z,24.20
2019-04-25T16:09:29.662Z,24.20
2019-04-25T16:12:02.264Z,24.10
2019-04-25T16:14:35.597Z,24.00
2019-04-25T16:17:07.814Z,23.80
2019-04-25T16:19:39.937Z,23.70
2019-04-25T16:22:11.942Z,23.60
2019-04-25T16:24:45.369Z,23.50
2019-04-25T16:27:18.275Z,23.50
2019-04-25T16:29:50.491Z,23.50
2019-04-25T16:32:24.537Z,23.40
2019-04-25T16:34:56.651Z,23.40
2019-04-25T16:37:30.099Z,23.20
2019-04-25T16:40:02.745Z,23.10
2019-04-25T16:42:35.935Z,23.00
2019-04-25T16:45:09.425Z,22.90
2019-04-25T16:47:41.895Z,22.90
2019-04-25T16:50:14.801Z,22.80
2019-04-25T16:52:47.291Z,22.80
2019-04-25T16:55:20.006Z,22.70
2019-04-25T16:57:52.079Z,22.70
2019-04-25T17:00:41.908Z,22.60
2019-04-25T17:03:14.223Z,22.50
2019-04-25T17:05:47.414Z,22.40
2019-04-25T17:08:19.896Z,22.30
2019-04-25T17:10:52.010Z,22.30
2019-04-25T17:13:26.082Z,22.20
2019-04-25T17:16:29.570Z,22.20
2019-04-25T17:19:06.689Z,22.10
2019-04-25T17:21:39.463Z,22.00
2019-04-25T17:24:11.552Z,21.90
2019-04-25T17:26:44.087Z,21.90
2019-04-25T17:29:20.003Z,21.80
2019-04-25T17:32:16.210Z,21.70
2019-04-25T17:34:59.337Z,21.40
2019-04-25T17:37:38.452Z,21.20
2019-04-25T17:40:14.661Z,21.00
2019-04-25T17:42:46.805Z,20.80
2019-04-25T17:45:23.572Z,20.60
2019-04-25T17:47:55.771Z,20.50
2019-04-25T17:50:27.890Z,20.30
2019-04-25T17:53:00.856Z,20.20
2019-04-25T17:55:33.713Z,20.20
2019-04-25T17:58:06.252Z,20.30
2019-04-25T18:00:40.441Z,20.30
2019-04-25T18:03:13.365Z,20.30
2019-04-25T18:05:46.057Z,20.30
2019-04-25T18:08:18.631Z,20.20
2019-04-25T18:10:51.108Z,20.30
2019-04-25T18:13:23.785Z,20.30
2019-04-25T18:16:05.402Z,20.30
2019-04-25T18:18:47.178Z,20.30
2019-04-25T18:21:19.306Z,20.10
2019-04-25T18:24:08.996Z,20.10
2019-04-25T18:26:49.837Z,20.00
2019-04-25T18:29:22.765Z,19.80
2019-04-25T18:31:55.091Z,19.70
2019-04-25T18:34:33.131Z,19.60
2019-04-25T18:37:23.441Z,19.50
2019-04-25T18:40:04.481Z,19.30
2019-04-25T18:43:14.279Z,19.30
2019-04-25T18:45:50.791Z,19.20
2019-04-25T18:48:23.892Z,19.10
2019-04-25T18:50:56.863Z,19.20
2019-04-25T18:53:50.903Z,19.30
2019-04-25T18:56:33.971Z,19.30
2019-04-25T18:59:43.988Z,19.20
2019-04-25T19:02:36.252Z,19.20
2019-04-25T19:05:27.769Z,19.00
2019-04-25T19:08:12.610Z,19.00
2019-04-25T19:10:45.111Z,18.80
2019-04-25T19:13:18.273Z,18.50
2019-04-25T19:15:51.520Z,18.20
2019-04-25T19:18:24.252Z,18.00
2019-04-25T19:20:56.724Z,17.70
2019-04-25T19:23:29.767Z,17.40
2019-04-25T19:26:01.846Z,17.20
2019-04-25T19:28:34.703Z,17.10
2019-04-25T19:31:07.217Z,17.10
2019-04-25T19:33:40.666Z,17.00
2019-04-25T19:36:19.130Z,16.80
2019-04-25T19:38:50.477Z,16.60
2019-04-25T19:41:45.025Z,16.30
2019-04-25T19:44:21.585Z,16.40
2019-04-25T19:46:54.582Z,16.70
2019-04-25T19:49:27.378Z,16.90
2019-04-25T19:51:59.899Z,17.20
2019-04-25T19:54:32.040Z,17.50
2019-04-25T19:57:04.876Z,17.80
2019-04-25T19:59:38.238Z,17.90
2019-04-25T20:02:17.605Z,18.10
2019-04-25T20:04:58.074Z,18.30
2019-04-25T20:07:49.519Z,18.40
2019-04-25T20:10:42.804Z,18.60
2019-04-25T20:13:16.628Z,18.70
2019-04-25T20:15:49.548Z,18.70
2019-04-25T20:18:22.785Z,18.80
2019-04-25T20:20:57.035Z,18.80
2019-04-25T20:23:30.054Z,18.80
2019-04-25T20:26:02.618Z,18.80
2019-04-25T20:28:35.469Z,18.60
2019-04-25T20:31:07.996Z,18.50
2019-04-25T20:33:40.318Z,18.50
2019-04-25T20:36:17.965Z,18.50
2019-04-25T20:38:47.201Z,18.60
2019-04-25T20:41:19.782Z,18.60
2019-04-25T20:43:52.877Z,18.70
2019-04-25T20:46:25.030Z,18.70
2019-04-25T20:48:57.110Z,18.70
2019-04-25T20:51:29.649Z,18.70
2019-04-25T20:54:02.158Z,18.60
2019-04-25T20:56:34.274Z,18.40
2019-04-25T20:59:06.442Z,17.90
2019-04-25T21:01:38.974Z,17.40
2019-04-25T21:04:29.790Z,17.00
2019-04-25T21:07:02.912Z,16.70
2019-04-25T21:09:34.980Z,16.30
2019-04-25T21:12:07.754Z,15.90
2019-04-25T21:14:52.814Z,15.60
2019-04-25T21:17:46.728Z,15.40
2019-04-25T21:20:19.229Z,15.20
2019-04-25T21:22:53.732Z,15.00
2019-04-25T21:25:26.227Z,14.90
2019-04-25T21:27:59.527Z,14.80
2019-04-25T21:30:32.043Z,14.80
2019-04-25T21:33:04.673Z,14.80
2019-04-25T21:35:37.792Z,14.90
2019-04-25T21:38:09.915Z,15.20
2019-04-25T21:40:59.936Z,15.40
2019-04-25T21:43:36.748Z,15.50
2019-04-25T21:46:09.142Z,15.30
2019-04-25T21:48:41.775Z,15.10
2019-04-25T21:51:32.550Z,15.00
2019-04-25T21:54:05.732Z,14.80
2019-04-25T21:56:38.003Z,14.70
2019-04-25T21:59:10.429Z,14.50
2019-04-25T22:01:44.352Z,14.50
2019-04-25T22:04:16.470Z,14.40
2019-04-25T22:06:49.173Z,14.50
2019-04-25T22:09:23.043Z,14.40
2019-04-25T22:11:56.346Z,14.50
2019-04-25T22:14:29.442Z,14.50
2019-04-25T22:17:01.936Z,14.70
2019-04-25T22:19:34.228Z,14.90
2019-04-25T22:22:06.904Z,15.10
2019-04-25T22:24:39.794Z,15.30
2019-04-25T22:27:18.463Z,15.50
2019-04-25T22:29:58.795Z,15.70
2019-04-25T22:32:57.121Z,15.80
2019-04-25T22:35:59.336Z,15.90
2019-04-25T22:38:31.954Z,15.90
2019-04-25T22:41:04.175Z,16.00
2019-04-25T22:43:38.640Z,16.00
2019-04-25T22:46:10.908Z,16.10
2019-04-25T22:48:49.306Z,16.10
2019-04-25T22:51:21.417Z,16.10
2019-04-25T22:53:53.695Z,16.00
2019-04-25T22:56:26.670Z,16.00
2019-04-25T22:58:59.172Z,15.90
2019-04-25T23:01:49.870Z,15.90
2019-04-25T23:04:34.574Z,15.90
2019-04-25T23:07:06.688Z,15.90
2019-04-25T23:09:39.590Z,15.80
2019-04-25T23:12:12.692Z,15.80
2019-04-25T23:14:45.043Z,15.70
2019-04-25T23:17:17.153Z,15.60
2019-04-25T23:19:50.165Z,15.60
2019-04-25T23:22:22.274Z,15.50
2019-04-25T23:24:59.758Z,15.40
2019-04-25T23:27:49.294Z,15.30
2019-04-25T23:30:23.743Z,15.20
2019-04-25T23:32:55.866Z,15.10
2019-04-25T23:35:31.194Z,15.00
2019-04-25T23:38:02.007Z,15.00
2019-04-25T23:40:34.658Z,15.00
2019-04-25T23:43:07.521Z,14.90
2019-04-25T23:45:39.951Z,14.90
2019-04-25T23:48:12.436Z,14.80
2019-04-25T23:50:44.455Z,14.80
2019-04-25T23:53:17.106Z,14.70
2019-04-25T23:55:49.269Z,14.70
2019-04-25T23:58:21.792Z,14.60
